Flight Track Log - Related Links

Times and Time Zones

All times are in EDT time to prevent confusion due to time zone crossing. See the MKU302 flight status page for this flight to view local times or setup timezone preferences in your user account.


Time Position Orientation Groundspeed Altitude Reporting Facility
EDT Latitude Longitude Course Direction KTS MPH feet Rate Location/Type
Sun 02:10:06 PM 20.9333 -156.7333 242° Southwest 160 184 2,600  Level Honolulu Center
Sun 02:11:07 PM 20.9333 -156.7833 270° West 170 196 3,700 1,140 Climbing Honolulu Center
Sun 02:12:07 PM 20.9500 -156.8333 290° West 170 196 4,900 1,160 Climbing Honolulu Center
Sun 02:13:06 PM 20.9500 -156.9000 270° West 180 207 6,000 1,100 Climbing Honolulu Center
Sun 02:14:07 PM 20.9667 -156.9500 290° West 170 196 7,100 992 Climbing Honolulu Center
Sun 02:15:07 PM 20.9667 -157.0000 270° West 190 219 8,000 450 Climbing Honolulu Center
Sun 02:16:07 PM 20.9500 -157.0667 255° West 210 242 8,000  Level Honolulu Center
Sun 02:17:07 PM 20.9500 -157.1333 270° West 220 253 8,000  Level Honolulu Center
Sun 02:18:07 PM 20.9500 -157.2000 270° West 230 265 8,000  Level Honolulu Center
Sun 02:19:07 PM 20.9500 -157.2667 270° West 240 276 8,000  Level Honolulu Center
Sun 02:20:08 PM 20.9500 -157.3333 270° West 230 265 8,000 -248 Level Honolulu Center
Sun 02:21:08 PM 20.9500 -157.4000 270° West 230 265 7,500 -550 Descending Honolulu Center
Sun 02:22:08 PM 20.9500 -157.4833 270° West 230 265 6,900 -650 Descending Honolulu Center
Sun 02:23:08 PM 20.9667 -157.5500 285° West 230 265 6,200 -750 Descending Honolulu Center
Sun 02:24:08 PM 21.0000 -157.6000 306° West 240 276 5,400 -800 Descending Honolulu Center
Sun 02:25:08 PM 21.0333 -157.6667 298° West 240 276 4,600 -793 Descending Honolulu Center
Sun 02:26:09 PM 21.0667 -157.7333 298° West 240 276 3,800 -800 Descending Honolulu Center
Sun 02:27:08 PM 21.1000 -157.8000 298° West 220 253 3,000 -800 Descending Honolulu Center
Sun 02:28:09 PM 21.1167 -157.8500 290° West 230 265 2,200 -744 Descending Honolulu Center
Sun 02:29:09 PM 21.1500 -157.9167 298° West 200 230 1,500 -350 Descending Honolulu Center
Sun 02:30:09 PM 21.2000 -157.9333 343° North 180 207 1,500 -200 Level Honolulu Center
Sun 02:31:09 PM 21.2500 -157.9500 343° North 180 207 1,100 -350 Descending Honolulu Center
Sun 02:32:09 PM 21.3000 -157.9667 343° North 120 138 800 -300 Descending Honolulu Center

Login

Don't have an account? Register now (free) for customized features, flight alerts, and more!